Fahri Eksioglu — TCUH — position and weather

sailwx.info

Track history (hours):
 
Tides and Currents Weather Stations Pressure Air Temp Water Temp Dewpoint Dewpoint Depression Visibility Wind Speed Wind Dir Waves Ship Positions

Fahri Eksioglu

Last reported at 2016-Dec-08 06:07 UTC. Time now 2016-Dec-08 16:05 UTC.
Position N 37°32' E 016°07'.

Length 87 m; draft 5.2 m.

Type: Cargo ship. MMSI: 271000450.

Date/timePositionNaut miles runAvg speedWind from/ knotsBaromVisibWave heightAir tempDewpointWater temp
2016-Dec-08 06:07N 37°32' E 016°07'  
2016-Dec-06 01:20N 44°31' E 013°39'810.0
2016-Dec-06 00:33N 44°38' E 013°33'10 9.9
2016-Dec-05 23:33N 44°46' E 013°25'10 9.9
2016-Dec-05 22:33N 44°55' E 013°17'10 9.9
2016-Dec-05 21:34N 45°03' E 013°09'10 9.8
2016-Dec-05 20:33N 45°11' E 013°03'10 9.6
2016-Dec-05 19:33N 45°21' E 013°00'10 9.8
2016-Dec-05 18:33N 45°28' E 013°10'10 9.7
2016-Dec-05 17:33N 45°34' E 013°20'10 9.7
2016-Dec-05 16:34N 45°38' E 013°33'9 8.5
2016-Dec-05 15:34N 45°38' E 013°45'0 0.2
2016-Dec-05 14:31N 45°38' E 013°45'0 0.0
2016-Dec-05 13:16N 45°38' E 013°45'0 0.0
2016-Dec-05 12:31N 45°38' E 013°45'0 0.0
2016-Dec-05 11:25N 45°38' E 013°45'0 0.0
2016-Dec-05 10:30N 45°38' E 013°45'0 0.0
2016-Dec-05 09:32N 45°38' E 013°45'0 0.0
2016-Dec-05 08:27N 45°38' E 013°45'0 0.0
2016-Dec-05 07:14N 45°38' E 013°45'0 0.0
2016-Dec-05 06:25N 45°38' E 013°45'0 0.0
2016-Dec-05 05:30N 45°38' E 013°45'0 0.0
2016-Dec-05 04:32N 45°38' E 013°45'0 0.0
2016-Dec-05 03:31N 45°38' E 013°45'0 0.0
2016-Dec-05 02:31N 45°38' E 013°45'0 0.0
2016-Dec-05 01:33N 45°38' E 013°45'0 0.0
2016-Dec-05 00:31N 45°38' E 013°45'0 0.0
2016-Dec-04 23:31N 45°38' E 013°45'0 0.0
2016-Dec-04 22:28N 45°38' E 013°45'0 0.0
2016-Dec-04 21:33N 45°38' E 013°45'0 0.0
2016-Dec-04 20:31N 45°38' E 013°45'0 0.0
2016-Dec-04 19:30N 45°38' E 013°45'0 0.0
2016-Dec-04 18:28N 45°38' E 013°45'0 0.0
2016-Dec-04 17:25N 45°38' E 013°45'0 0.0
2016-Dec-04 16:33N 45°38' E 013°45'0 0.0
2016-Dec-04 15:28N 45°38' E 013°45'0 0.0
2016-Dec-04 14:28N 45°38' E 013°45'0 0.0
2016-Dec-04 13:28N 45°38' E 013°45'0 0.0
2016-Dec-04 12:29N 45°38' E 013°45'0 0.0
2016-Dec-04 11:31N 45°38' E 013°45'0 0.0
2016-Dec-04 10:31N 45°38' E 013°45'0 0.0
2016-Dec-04 09:31N 45°38' E 013°45'0 0.0
2016-Dec-04 08:28N 45°38' E 013°45'0 0.0
2016-Dec-04 07:30N 45°38' E 013°45'0 0.0
2016-Dec-04 06:32N 45°38' E 013°45'0 0.0
2016-Dec-04 05:22N 45°38' E 013°45'0 0.0
2016-Dec-04 04:16N 45°38' E 013°45'0 0.0
2016-Dec-04 03:19N 45°38' E 013°45'0 0.0
2016-Dec-04 02:33N 45°38' E 013°45'0 0.0
2016-Dec-04 01:28N 45°38' E 013°45'0 0.0
2016-Dec-04 00:21N 45°38' E 013°45'0 0.0
2016-Dec-03 23:26N 45°38' E 013°45'0 0.0
2016-Dec-03 22:23N 45°38' E 013°45'0 0.0
2016-Dec-03 21:28N 45°38' E 013°45'0 0.0
2016-Dec-03 20:31N 45°38' E 013°45'0 0.0
2016-Dec-03 19:31N 45°38' E 013°45'0 0.0
2016-Dec-03 18:32N 45°38' E 013°45'0 0.0
2016-Dec-03 17:20N 45°38' E 013°45'0 0.0
2016-Dec-03 16:32N 45°38' E 013°45'0 0.0
2016-Dec-03 15:30N 45°38' E 013°45'0 0.0
2016-Dec-03 14:33N 45°38' E 013°45'0 0.0
2016-Dec-03 13:27N 45°38' E 013°45'0 0.0
2016-Dec-03 12:30N 45°38' E 013°45'0 0.0
2016-Dec-03 11:30N 45°38' E 013°45'0 0.0
2016-Dec-03 10:18N 45°38' E 013°45'0 0.0
2016-Dec-03 09:31N 45°38' E 013°45'0 0.0
2016-Dec-03 08:24N 45°38' E 013°45'0 0.0
2016-Dec-03 07:29N 45°38' E 013°45'0 0.0
2016-Dec-03 06:33N 45°38' E 013°45'0 0.0
2016-Dec-03 05:27N 45°38' E 013°45'0 0.0
2016-Dec-03 04:30N 45°38' E 013°45'0 0.0
2016-Dec-03 03:31N 45°38' E 013°45'0 0.0
2016-Dec-03 02:32N 45°38' E 013°45'0 0.0
2016-Dec-03 01:34N 45°38' E 013°45'0 0.0
2016-Dec-03 00:33N 45°38' E 013°45'0 0.0
2016-Dec-02 23:32N 45°38' E 013°45'0 0.0
2016-Dec-02 22:32N 45°38' E 013°45'0 0.0
2016-Dec-02 21:29N 45°38' E 013°45'0 0.0
2016-Dec-02 20:32N 45°38' E 013°45'0 0.0
2016-Dec-02 19:16N 45°38' E 013°45'0 0.0
2016-Dec-02 18:32N 45°38' E 013°45'0 0.0
2016-Dec-02 17:33N 45°38' E 013°45'0 0.0
2016-Dec-02 16:31N 45°38' E 013°45'0 0.0
2016-Dec-02 15:27N 45°38' E 013°45'0 0.0
2016-Dec-02 14:29N 45°38' E 013°45'0 0.0
2016-Dec-02 13:33N 45°38' E 013°45'0 0.0
2016-Dec-02 12:24N 45°38' E 013°45'0 0.0
2016-Dec-02 11:31N 45°38' E 013°45'0 0.0
2016-Dec-02 09:20N 45°38' E 013°45'0 0.0
2016-Dec-02 08:32N 45°38' E 013°45'0 0.0
2016-Dec-02 07:29N 45°38' E 013°45'0 0.0
2016-Dec-02 06:13N 45°38' E 013°45'0 0.0
2016-Dec-02 05:26N 45°38' E 013°45'0 0.0
2016-Dec-02 04:30N 45°38' E 013°45'0 0.0
2016-Dec-02 03:16N 45°38' E 013°45'0 0.0
2016-Dec-02 02:33N 45°38' E 013°45'0 0.0
2016-Dec-02 01:33N 45°38' E 013°45'0 0.0
2016-Dec-02 00:19N 45°38' E 013°45'0 0.0
2016-Dec-01 23:31N 45°38' E 013°45'0 0.0
2016-Dec-01 22:29N 45°38' E 013°45'0 0.0
2016-Dec-01 21:29N 45°38' E 013°45'0 0.0
2016-Dec-01 20:32N 45°38' E 013°45'0 0.0
2016-Dec-01 19:30N 45°38' E 013°45'0 0.0
2016-Dec-01 18:31N 45°38' E 013°45'0 0.0
2016-Dec-01 17:31N 45°38' E 013°45'0 0.0
2016-Dec-01 16:33N 45°38' E 013°45'0 0.0
2016-Dec-01 15:31N 45°38' E 013°45'0 0.0
2016-Dec-01 14:24N 45°38' E 013°45'0 0.0
2016-Dec-01 13:30N 45°38' E 013°45'0 0.0
2016-Dec-01 12:32N 45°38' E 013°45'0 0.0
2016-Dec-01 11:31N 45°38' E 013°45'0 0.0
2016-Dec-01 10:31N 45°38' E 013°45'0 0.0
2016-Dec-01 09:25N 45°38' E 013°45'0 0.0
2016-Dec-01 08:24N 45°38' E 013°45'2 2.8
2016-Dec-01 07:33N 45°40' E 013°44'0 0.3
2016-Dec-01 06:21N 45°41' E 013°44'0 0.0
2016-Dec-01 05:27N 45°41' E 013°44'0 0.0
2016-Dec-01 04:33N 45°41' E 013°44'0 0.0
2016-Dec-01 03:30N 45°41' E 013°44'0 0.0
2016-Dec-01 02:31N 45°41' E 013°44'0 0.0
2016-Dec-01 01:25N 45°41' E 013°44'0 0.0
2016-Dec-01 00:26N 45°41' E 013°44'0 0.0
2016-Nov-30 23:04N 45°41' E 013°44'0 0.0
2016-Nov-30 22:24N 45°41' E 013°44'0 0.0
2016-Nov-30 21:27N 45°41' E 013°44'0 0.0
2016-Nov-30 20:32N 45°41' E 013°44'0 0.0
2016-Nov-30 19:27N 45°41' E 013°44'0 0.0
2016-Nov-30 18:30N 45°41' E 013°44'0 0.0
2016-Nov-30 17:31N 45°41' E 013°44'0 0.1
2016-Nov-30 16:29N 45°41' E 013°44'0 0.1
2016-Nov-30 15:32N 45°41' E 013°44'0 0.0
2016-Nov-30 14:29N 45°41' E 013°44'0 0.0
2016-Nov-30 13:29N 45°41' E 013°44'0 0.0
2016-Nov-30 12:29N 45°41' E 013°44'0 0.0
2016-Nov-30 11:29N 45°41' E 013°44'0 0.0
2016-Nov-30 10:32N 45°41' E 013°44'0 0.0
2016-Nov-30 09:32N 45°41' E 013°44'0 0.0
2016-Nov-30 08:31N 45°41' E 013°44'0 0.0
2016-Nov-30 07:32N 45°41' E 013°44'0 0.0
2016-Nov-30 06:23N 45°41' E 013°44'0 0.0
2016-Nov-30 05:28N 45°41' E 013°44'0 0.0
2016-Nov-30 04:33N 45°41' E 013°44'0 0.0
2016-Nov-30 03:28N 45°41' E 013°44'0 0.0
2016-Nov-30 02:33N 45°41' E 013°44'0 0.0
2016-Nov-30 01:19N 45°41' E 013°44'0 0.0
2016-Nov-30 00:25N 45°41' E 013°44'0 0.0
2016-Nov-29 23:29N 45°41' E 013°44'0 0.0
2016-Nov-29 22:25N 45°41' E 013°44'0 0.0
2016-Nov-29 21:28N 45°41' E 013°44'0 0.0
2016-Nov-29 20:30N 45°41' E 013°44'0 0.0
2016-Nov-29 19:11N 45°41' E 013°44'0 0.0
2016-Nov-29 18:12N 45°41' E 013°44'0 0.1
2016-Nov-29 17:29N 45°41' E 013°44'0 0.0
2016-Nov-29 16:21N 45°41' E 013°44'0 0.0
2016-Nov-29 15:28N 45°41' E 013°44'0 0.0
2016-Nov-29 14:30N 45°41' E 013°44'0 0.0
2016-Nov-29 13:22N 45°41' E 013°44'0 0.0
2016-Nov-29 12:32N 45°41' E 013°44'0 0.0
2016-Nov-29 11:32N 45°41' E 013°44'0 0.0
2016-Nov-29 10:24N 45°41' E 013°44'0 0.0
2016-Nov-29 09:28N 45°41' E 013°44'0 0.0
2016-Nov-29 08:27N 45°41' E 013°44'0 0.0
2016-Nov-29 07:29N 45°41' E 013°44'0 0.1
2016-Nov-29 06:26N 45°41' E 013°44'0 0.0
2016-Nov-29 05:27N 45°41' E 013°44'0 0.0
2016-Nov-29 04:33N 45°41' E 013°44'0 0.0
2016-Nov-29 03:31N 45°41' E 013°44'0 0.0
2016-Nov-29 02:30N 45°41' E 013°44'0 0.0
2016-Nov-29 01:33N 45°41' E 013°44'0 0.0
2016-Nov-29 00:25N 45°41' E 013°44'0 0.0
2016-Nov-28 23:28N 45°41' E 013°44'0 0.0
2016-Nov-28 22:30N 45°41' E 013°44'0 0.0
2016-Nov-28 21:29N 45°41' E 013°44'0 0.0
2016-Nov-28 20:32N 45°41' E 013°44'0 0.0
2016-Nov-28 19:30N 45°41' E 013°44'0 0.0
2016-Nov-28 18:26N 45°41' E 013°44'0 0.0
2016-Nov-28 17:33N 45°41' E 013°44'0 0.0
2016-Nov-28 16:29N 45°41' E 013°44'1 1.1
2016-Nov-28 15:29N 45°40' E 013°43'0 0.2
2016-Nov-28 14:26N 45°40' E 013°43'0 0.0
2016-Nov-28 13:33N 45°40' E 013°43'0 0.0
2016-Nov-28 12:29N 45°40' E 013°43'0 0.1
2016-Nov-28 11:29N 45°40' E 013°43'0 0.0
2016-Nov-28 10:32N 45°40' E 013°43'0 0.0
2016-Nov-28 09:31N 45°40' E 013°43'0 0.0
2016-Nov-28 08:19N 45°40' E 013°43'0 0.0
2016-Nov-28 07:17N 45°40' E 013°43'0 0.0
2016-Nov-28 06:26N 45°40' E 013°43'  
Track history (hours):
 
Tides and Currents Weather Stations Pressure Air Temp Water Temp Dewpoint Dewpoint Depression Visibility Wind Speed Wind Dir Waves Ship Positions

Fahri Eksioglu

Last reported at 2016-Dec-08 06:07 UTC. Time now 2016-Dec-08 16:05 UTC.
Position N 37°32' E 016°07'.

Length 87 m; draft 5.2 m.

Type: Cargo ship. MMSI: 271000450.

Date/timePositionNaut miles runAvg speedWind from/ knotsBaromVisibWave heightAir tempDewpointWater temp
2016-Dec-08 06:07N 37°32' E 016°07'  
2016-Dec-06 01:20N 44°31' E 013°39'810.0
2016-Dec-06 00:33N 44°38' E 013°33'10 9.9
2016-Dec-05 23:33N 44°46' E 013°25'10 9.9
2016-Dec-05 22:33N 44°55' E 013°17'10 9.9
2016-Dec-05 21:34N 45°03' E 013°09'10 9.8
2016-Dec-05 20:33N 45°11' E 013°03'10 9.6
2016-Dec-05 19:33N 45°21' E 013°00'10 9.8
2016-Dec-05 18:33N 45°28' E 013°10'10 9.7
2016-Dec-05 17:33N 45°34' E 013°20'10 9.7
2016-Dec-05 16:34N 45°38' E 013°33'9 8.5
2016-Dec-05 15:34N 45°38' E 013°45'0 0.2
2016-Dec-05 14:31N 45°38' E 013°45'0 0.0
2016-Dec-05 13:16N 45°38' E 013°45'0 0.0
2016-Dec-05 12:31N 45°38' E 013°45'0 0.0
2016-Dec-05 11:25N 45°38' E 013°45'0 0.0
2016-Dec-05 10:30N 45°38' E 013°45'0 0.0
2016-Dec-05 09:32N 45°38' E 013°45'0 0.0
2016-Dec-05 08:27N 45°38' E 013°45'0 0.0
2016-Dec-05 07:14N 45°38' E 013°45'0 0.0
2016-Dec-05 06:25N 45°38' E 013°45'0 0.0
2016-Dec-05 05:30N 45°38' E 013°45'0 0.0
2016-Dec-05 04:32N 45°38' E 013°45'0 0.0
2016-Dec-05 03:31N 45°38' E 013°45'0 0.0
2016-Dec-05 02:31N 45°38' E 013°45'0 0.0
2016-Dec-05 01:33N 45°38' E 013°45'0 0.0
2016-Dec-05 00:31N 45°38' E 013°45'0 0.0
2016-Dec-04 23:31N 45°38' E 013°45'0 0.0
2016-Dec-04 22:28N 45°38' E 013°45'0 0.0
2016-Dec-04 21:33N 45°38' E 013°45'0 0.0
2016-Dec-04 20:31N 45°38' E 013°45'0 0.0
2016-Dec-04 19:30N 45°38' E 013°45'0 0.0
2016-Dec-04 18:28N 45°38' E 013°45'0 0.0
2016-Dec-04 17:25N 45°38' E 013°45'0 0.0
2016-Dec-04 16:33N 45°38' E 013°45'0 0.0
2016-Dec-04 15:28N 45°38' E 013°45'0 0.0
2016-Dec-04 14:28N 45°38' E 013°45'0 0.0
2016-Dec-04 13:28N 45°38' E 013°45'0 0.0
2016-Dec-04 12:29N 45°38' E 013°45'0 0.0
2016-Dec-04 11:31N 45°38' E 013°45'0 0.0
2016-Dec-04 10:31N 45°38' E 013°45'0 0.0
2016-Dec-04 09:31N 45°38' E 013°45'0 0.0
2016-Dec-04 08:28N 45°38' E 013°45'0 0.0
2016-Dec-04 07:30N 45°38' E 013°45'0 0.0
2016-Dec-04 06:32N 45°38' E 013°45'0 0.0
2016-Dec-04 05:22N 45°38' E 013°45'0 0.0
2016-Dec-04 04:16N 45°38' E 013°45'0 0.0
2016-Dec-04 03:19N 45°38' E 013°45'0 0.0
2016-Dec-04 02:33N 45°38' E 013°45'0 0.0
2016-Dec-04 01:28N 45°38' E 013°45'0 0.0
2016-Dec-04 00:21N 45°38' E 013°45'0 0.0
2016-Dec-03 23:26N 45°38' E 013°45'0 0.0
2016-Dec-03 22:23N 45°38' E 013°45'0 0.0
2016-Dec-03 21:28N 45°38' E 013°45'0 0.0
2016-Dec-03 20:31N 45°38' E 013°45'0 0.0
2016-Dec-03 19:31N 45°38' E 013°45'0 0.0
2016-Dec-03 18:32N 45°38' E 013°45'0 0.0
2016-Dec-03 17:20N 45°38' E 013°45'0 0.0
2016-Dec-03 16:32N 45°38' E 013°45'0 0.0
2016-Dec-03 15:30N 45°38' E 013°45'0 0.0
2016-Dec-03 14:33N 45°38' E 013°45'0 0.0
2016-Dec-03 13:27N 45°38' E 013°45'0 0.0
2016-Dec-03 12:30N 45°38' E 013°45'0 0.0
2016-Dec-03 11:30N 45°38' E 013°45'0 0.0
2016-Dec-03 10:18N 45°38' E 013°45'0 0.0
2016-Dec-03 09:31N 45°38' E 013°45'0 0.0
2016-Dec-03 08:24N 45°38' E 013°45'0 0.0
2016-Dec-03 07:29N 45°38' E 013°45'0 0.0
2016-Dec-03 06:33N 45°38' E 013°45'0 0.0
2016-Dec-03 05:27N 45°38' E 013°45'0 0.0
2016-Dec-03 04:30N 45°38' E 013°45'0 0.0
2016-Dec-03 03:31N 45°38' E 013°45'0 0.0
2016-Dec-03 02:32N 45°38' E 013°45'0 0.0
2016-Dec-03 01:34N 45°38' E 013°45'0 0.0
2016-Dec-03 00:33N 45°38' E 013°45'0 0.0
2016-Dec-02 23:32N 45°38' E 013°45'0 0.0
2016-Dec-02 22:32N 45°38' E 013°45'0 0.0
2016-Dec-02 21:29N 45°38' E 013°45'0 0.0
2016-Dec-02 20:32N 45°38' E 013°45'0 0.0
2016-Dec-02 19:16N 45°38' E 013°45'0 0.0
2016-Dec-02 18:32N 45°38' E 013°45'0 0.0
2016-Dec-02 17:33N 45°38' E 013°45'0 0.0
2016-Dec-02 16:31N 45°38' E 013°45'0 0.0
2016-Dec-02 15:27N 45°38' E 013°45'0 0.0
2016-Dec-02 14:29N 45°38' E 013°45'0 0.0
2016-Dec-02 13:33N 45°38' E 013°45'0 0.0
2016-Dec-02 12:24N 45°38' E 013°45'0 0.0
2016-Dec-02 11:31N 45°38' E 013°45'0 0.0
2016-Dec-02 09:20N 45°38' E 013°45'0 0.0
2016-Dec-02 08:32N 45°38' E 013°45'0 0.0
2016-Dec-02 07:29N 45°38' E 013°45'0 0.0
2016-Dec-02 06:13N 45°38' E 013°45'0 0.0
2016-Dec-02 05:26N 45°38' E 013°45'0 0.0
2016-Dec-02 04:30N 45°38' E 013°45'0 0.0
2016-Dec-02 03:16N 45°38' E 013°45'0 0.0
2016-Dec-02 02:33N 45°38' E 013°45'0 0.0
2016-Dec-02 01:33N 45°38' E 013°45'0 0.0
2016-Dec-02 00:19N 45°38' E 013°45'0 0.0
2016-Dec-01 23:31N 45°38' E 013°45'0 0.0
2016-Dec-01 22:29N 45°38' E 013°45'0 0.0
2016-Dec-01 21:29N 45°38' E 013°45'0 0.0
2016-Dec-01 20:32N 45°38' E 013°45'0 0.0
2016-Dec-01 19:30N 45°38' E 013°45'0 0.0
2016-Dec-01 18:31N 45°38' E 013°45'0 0.0
2016-Dec-01 17:31N 45°38' E 013°45'0 0.0
2016-Dec-01 16:33N 45°38' E 013°45'0 0.0
2016-Dec-01 15:31N 45°38' E 013°45'0 0.0
2016-Dec-01 14:24N 45°38' E 013°45'0 0.0
2016-Dec-01 13:30N 45°38' E 013°45'0 0.0
2016-Dec-01 12:32N 45°38' E 013°45'0 0.0
2016-Dec-01 11:31N 45°38' E 013°45'0 0.0
2016-Dec-01 10:31N 45°38' E 013°45'0 0.0
2016-Dec-01 09:25N 45°38' E 013°45'0 0.0
2016-Dec-01 08:24N 45°38' E 013°45'2 2.8
2016-Dec-01 07:33N 45°40' E 013°44'0 0.3
2016-Dec-01 06:21N 45°41' E 013°44'0 0.0
2016-Dec-01 05:27N 45°41' E 013°44'0 0.0
2016-Dec-01 04:33N 45°41' E 013°44'0 0.0
2016-Dec-01 03:30N 45°41' E 013°44'0 0.0
2016-Dec-01 02:31N 45°41' E 013°44'0 0.0
2016-Dec-01 01:25N 45°41' E 013°44'0 0.0
2016-Dec-01 00:26N 45°41' E 013°44'0 0.0
2016-Nov-30 23:04N 45°41' E 013°44'0 0.0
2016-Nov-30 22:24N 45°41' E 013°44'0 0.0
2016-Nov-30 21:27N 45°41' E 013°44'0 0.0
2016-Nov-30 20:32N 45°41' E 013°44'0 0.0
2016-Nov-30 19:27N 45°41' E 013°44'0 0.0
2016-Nov-30 18:30N 45°41' E 013°44'0 0.0
2016-Nov-30 17:31N 45°41' E 013°44'0 0.1
2016-Nov-30 16:29N 45°41' E 013°44'0 0.1
2016-Nov-30 15:32N 45°41' E 013°44'0 0.0
2016-Nov-30 14:29N 45°41' E 013°44'0 0.0
2016-Nov-30 13:29N 45°41' E 013°44'0 0.0
2016-Nov-30 12:29N 45°41' E 013°44'0 0.0
2016-Nov-30 11:29N 45°41' E 013°44'0 0.0
2016-Nov-30 10:32N 45°41' E 013°44'0 0.0
2016-Nov-30 09:32N 45°41' E 013°44'0 0.0
2016-Nov-30 08:31N 45°41' E 013°44'0 0.0
2016-Nov-30 07:32N 45°41' E 013°44'0 0.0
2016-Nov-30 06:23N 45°41' E 013°44'0 0.0
2016-Nov-30 05:28N 45°41' E 013°44'0 0.0
2016-Nov-30 04:33N 45°41' E 013°44'0 0.0
2016-Nov-30 03:28N 45°41' E 013°44'0 0.0
2016-Nov-30 02:33N 45°41' E 013°44'0 0.0
2016-Nov-30 01:19N 45°41' E 013°44'0 0.0
2016-Nov-30 00:25N 45°41' E 013°44'0 0.0
2016-Nov-29 23:29N 45°41' E 013°44'0 0.0
2016-Nov-29 22:25N 45°41' E 013°44'0 0.0
2016-Nov-29 21:28N 45°41' E 013°44'0 0.0
2016-Nov-29 20:30N 45°41' E 013°44'0 0.0
2016-Nov-29 19:11N 45°41' E 013°44'0 0.0
2016-Nov-29 18:12N 45°41' E 013°44'0 0.1
2016-Nov-29 17:29N 45°41' E 013°44'0 0.0
2016-Nov-29 16:21N 45°41' E 013°44'0 0.0
2016-Nov-29 15:28N 45°41' E 013°44'0 0.0
2016-Nov-29 14:30N 45°41' E 013°44'0 0.0
2016-Nov-29 13:22N 45°41' E 013°44'0 0.0
2016-Nov-29 12:32N 45°41' E 013°44'0 0.0
2016-Nov-29 11:32N 45°41' E 013°44'0 0.0
2016-Nov-29 10:24N 45°41' E 013°44'0 0.0
2016-Nov-29 09:28N 45°41' E 013°44'0 0.0
2016-Nov-29 08:27N 45°41' E 013°44'0 0.0
2016-Nov-29 07:29N 45°41' E 013°44'0 0.1
2016-Nov-29 06:26N 45°41' E 013°44'0 0.0
2016-Nov-29 05:27N 45°41' E 013°44'0 0.0
2016-Nov-29 04:33N 45°41' E 013°44'0 0.0
2016-Nov-29 03:31N 45°41' E 013°44'0 0.0
2016-Nov-29 02:30N 45°41' E 013°44'0 0.0
2016-Nov-29 01:33N 45°41' E 013°44'0 0.0
2016-Nov-29 00:25N 45°41' E 013°44'0 0.0
2016-Nov-28 23:28N 45°41' E 013°44'0 0.0
2016-Nov-28 22:30N 45°41' E 013°44'0 0.0
2016-Nov-28 21:29N 45°41' E 013°44'0 0.0
2016-Nov-28 20:32N 45°41' E 013°44'0 0.0
2016-Nov-28 19:30N 45°41' E 013°44'0 0.0
2016-Nov-28 18:26N 45°41' E 013°44'0 0.0
2016-Nov-28 17:33N 45°41' E 013°44'0 0.0
2016-Nov-28 16:29N 45°41' E 013°44'1 1.1
2016-Nov-28 15:29N 45°40' E 013°43'0 0.2
2016-Nov-28 14:26N 45°40' E 013°43'0 0.0
2016-Nov-28 13:33N 45°40' E 013°43'0 0.0
2016-Nov-28 12:29N 45°40' E 013°43'0 0.1
2016-Nov-28 11:29N 45°40' E 013°43'0 0.0
2016-Nov-28 10:32N 45°40' E 013°43'0 0.0
2016-Nov-28 09:31N 45°40' E 013°43'0 0.0
2016-Nov-28 08:19N 45°40' E 013°43'0 0.0
2016-Nov-28 07:17N 45°40' E 013°43'0 0.0
2016-Nov-28 06:26N 45°40' E 013°43'  

Dump ship's entire track history